Terminal Aerodrome Forecast
Issued by NWS

Home | Current Version | Previous Version | Graphics & Text | Print | Product List | Glossary On
Versions: 1 2 3 4 5 6 7 8 9 10 11 12 13 14 15 16 17
000
FTUS41 KCLE 162324
TAFFDY
TAF
KFDY 162324Z 1700/1724 10004KT P6SM SCT200
     FM170400 12005KT P6SM BKN200
     FM170700 15006KT P6SM BKN120
     FM170900 16006KT P6SM VCSH OVC060
     FM171200 17008KT 6SM -TSRA SCT035CB OVC070
     FM171500 20011KT P6SM -TSRA SCT035CB OVC050=

USA.gov is the U.S. government's official web portal to all federal, state and local government web resources and services.